Impacts METAR Board
IDs:

KCFD - Bryan/Coulter Fld, TX, US

Updated at: 2200 UTC 30 Jun 2022
Potential Impact None Slight Moderate High
Time 30/10Z 30/11Z 30/12Z 30/13Z 30/14Z 30/15Z 30/16Z 30/17Z 30/18Z 30/19Z 30/20Z 30/21Z 30/22Z
Temp76 74 75 79 82 84 88 90 91 92 94 87 92
Dewpt72 73 72 73 72 71 69 70 69 68 68 73 69
Altim30.08 30.08 30.08 30.08 30.10 30.08 30.07 30.06 30.04 30.01 29.99 29.98 29.97
VIS10 10 10 10 10 10 10 10 10 10 10 10 10
CIG-- -- -- -- -- -- 34 -- -- 50 -- 70 --
CoverCLRCLRCLRCLRCLRCLRBKNCLRSCTBKNSCTBKNCLR
FltCatVFRVFRVFRVFRVFRVFRVFRVFRVFRVFRVFRVFRVFR
WX--------------------------
WDir0000600100040100110110110
WSpd0 0 0 0 3 0 7 0 8 10 8 8 11
WGst-- -- -- -- -- -- -- -- -- 14 -- -- 15
Raw hourly METARs
KCFD 300955Z AUTO 00000KT 10SM CLR 25/22 A3008 RMK AO2 T02470220
KCFD 301055Z AUTO 00000KT 10SM CLR 24/23 A3008 RMK AO2 T02350225
KCFD 301155Z AUTO 00000KT 10SM CLR 24/22 A3008 RMK AO2 T02400221 10264 20232
KCFD 301255Z AUTO 00000KT 10SM CLR 26/23 A3008 RMK AO2 T02590227
KCFD 301355Z AUTO 06003KT 10SM CLR 28/22 A3010 RMK AO2 T02800220
KCFD 301455Z AUTO 00000KT 10SM CLR 29/22 A3008 RMK AO2 T02900215
KCFD 301555Z AUTO 10007KT 10SM BKN034 31/21 A3007 RMK AO2 T03100208
KCFD 301655Z AUTO 00000KT 10SM CLR 32/21 A3006 RMK AO2 T03220209
KCFD 301755Z AUTO 04008KT 10SM SCT048 SCT055 33/20 A3004 RMK AO2 T03250203 10332 20230
KCFD 301855Z AUTO 10010G14KT 10SM BKN050 BKN075 BKN090 33/20 A3001 RMK AO2 T03330201
KCFD 301955Z AUTO 11008KT 10SM SCT060 SCT080 35/20 A2999 RMK AO2 T03450200
KCFD 302055Z AUTO 11008KT 10SM BKN070 BKN085 BKN120 31/23 A2998 RMK AO2 T03060226
KCFD 302155Z AUTO 11011G15KT 10SM CLR 33/20 A2997 RMK AO2 T03310204



Page loaded:  22:26 UTC  |   03:26 PM Pacific  |   04:26 PM Mountain  |   05:26 PM Central  |   06:26 PM Eastern

 

ADVISORIES

FORECASTS

FORECASTS

OBSERVATIONS

USER TOOLS

ABOUT US